This is the latest recevied weather packets stored in our database for station/object DG3RAP-11. If no packets are shown the sender has not sent any weather packets the latest 10 day(s).
| Time | Temp. | Humidity | Pressure | Rain* | Wind** | Luminosity | Snow |
|---|---|---|---|---|---|---|---|
| 1777486143 | 11.67° C | 31% | 1022.9 hPa | 0 mm | - | - | - |
| 1777483623 | 12.78° C | 31% | 1022.3 hPa | 0 mm | - | - | - |
| 1777483083 | 13.33° C | 32% | 1022.4 hPa | 0 mm | - | - | - |
| 1777480023 | 14.44° C | 29% | 1022 hPa | 0 mm | - | - | - |
| 1777479483 | 14.44° C | 28% | 1021.9 hPa | 0 mm | - | - | - |
| 1777478943 | 14.44° C | 27% | 1021.7 hPa | 0 mm | - | - | - |
| 1777475343 | 15° C | 28% | 1021.7 hPa | 0 mm | - | - | - |
| 1777472823 | 15.56° C | 27% | 1021.5 hPa | 0 mm | - | - | - |
| 1777472283 | 15.56° C | 28% | 1021.8 hPa | 0 mm | - | - | - |
| 1777471743 | 15° C | 29% | 1021.6 hPa | 0 mm | - | - | - |
| 1777470843 | 15.56° C | 25% | 1021.6 hPa | 0 mm | - | - | - |
| 1777469223 | 15° C | 27% | 1021.7 hPa | 0 mm | - | - | - |
| 1777468683 | 15° C | 28% | 1021.5 hPa | 0 mm | - | - | - |
| 1777468143 | 15° C | 28% | 1021.8 hPa | 0 mm | - | - | - |
| 1777466163 | 14.44° C | 30% | 1021.9 hPa | 0 mm | - | - | - |
| 1777465623 | 14.44° C | 29% | 1021.7 hPa | 0 mm | - | - | - |
| 1777465083 | 15° C | 30% | 1021.7 hPa | 0 mm | - | - | - |
| 1777464543 | 14.44° C | 31% | 1021.6 hPa | 0 mm | - | - | - |
| 1777462563 | 14.44° C | 31% | 1021.8 hPa | 0 mm | - | - | - |
| 1777462023 | 14.44° C | 31% | 1021.8 hPa | 0 mm | - | - | - |
| 1777461483 | 13.33° C | 31% | 1022.2 hPa | 0 mm | - | - | - |
| 1777460943 | 13.33° C | 32% | 1022.1 hPa | 0 mm | - | - | - |
| 1777460403 | 13.89° C | 32% | 1022 hPa | 0 mm | - | - | - |
| 1777458963 | 13.33° C | 32% | 1022.1 hPa | 0 mm | - | - | - |
| 1777458423 | 13.33° C | 33% | 1022.3 hPa | 0 mm | - | - | - |
* Rain latest hour (hover to see other rain measurements)
** Current wind speed in m/s (hover to see current wind gust speed)